createdAt,value
2023-07-03T00:00:52.201Z,58.08
2023-07-03T00:05:54.008Z,58.27
2023-07-03T00:11:02.654Z,59.16
2023-07-03T00:16:05.102Z,59.32
2023-07-03T00:21:06.864Z,59.53
2023-07-03T00:26:08.494Z,59.92
2023-07-03T00:31:10.172Z,60.47
2023-07-03T00:36:11.837Z,62.17
2023-07-03T00:41:13.542Z,62.73
2023-07-03T00:46:15.285Z,63.10
2023-07-03T00:51:17.321Z,62.45
2023-07-03T00:56:19.800Z,61.63
2023-07-03T01:01:39.732Z,61.43
2023-07-03T01:07:06.773Z,61.65
2023-07-03T01:12:08.931Z,61.47
2023-07-03T01:17:11.044Z,61.26
2023-07-03T01:22:32.449Z,60.90
2023-07-03T01:27:36.641Z,61.78
2023-07-03T01:32:40.502Z,61.29
2023-07-03T01:37:47.892Z,61.40
2023-07-03T01:42:49.560Z,61.73
2023-07-03T01:47:51.267Z,62.11
2023-07-03T01:53:03.508Z,62.38
2023-07-03T01:58:18.922Z,62.87
2023-07-03T02:03:26.007Z,62.97
2023-07-03T02:08:28.801Z,63.14
2023-07-03T02:13:30.441Z,63.27
2023-07-03T02:18:35.268Z,63.00
2023-07-03T02:23:37.163Z,63.35
2023-07-03T02:28:38.891Z,63.38
2023-07-03T02:33:40.955Z,63.88
2023-07-03T02:38:42.571Z,64.26
2023-07-03T02:43:44.303Z,64.19
2023-07-03T02:48:46.631Z,64.58
2023-07-03T02:53:48.692Z,64.75
2023-07-03T02:58:51.752Z,64.88
2023-07-03T03:03:59.788Z,64.98
2023-07-03T03:09:02.091Z,64.83
2023-07-03T03:14:06.989Z,65.08
2023-07-03T03:19:09.685Z,64.60
2023-07-03T03:24:11.385Z,64.38
2023-07-03T03:29:13.009Z,63.35
2023-07-03T03:34:16.576Z,62.98
2023-07-03T03:39:18.235Z,62.50
2023-07-03T03:44:20.223Z,62.02
2023-07-03T03:49:23.099Z,62.32
2023-07-03T03:54:27.515Z,63.13
2023-07-03T03:59:29.473Z,63.40
2023-07-03T04:04:33.408Z,63.12
2023-07-03T04:09:35.158Z,63.14
2023-07-03T04:14:39.126Z,63.21
2023-07-03T04:19:40.823Z,63.38
2023-07-03T04:24:42.434Z,63.62
2023-07-03T04:29:44.125Z,63.38
2023-07-03T04:34:45.751Z,58.74
2023-07-03T04:39:47.398Z,57.80
2023-07-03T04:44:50.094Z,57.42
2023-07-03T04:49:56.418Z,57.44
2023-07-03T04:54:58.170Z,56.31
2023-07-03T05:00:01.650Z,56.36
2023-07-03T05:05:03.401Z,56.84
2023-07-03T05:10:06.627Z,55.68
2023-07-03T05:15:09.622Z,54.60
2023-07-03T05:20:15.981Z,53.97
2023-07-03T05:25:17.882Z,52.78
2023-07-03T05:30:19.650Z,52.94
2023-07-03T05:35:21.382Z,52.50
2023-07-03T05:40:23.218Z,51.83
2023-07-03T05:45:25.175Z,52.20
2023-07-03T05:50:26.775Z,52.01
2023-07-03T05:55:28.381Z,51.83
2023-07-03T06:00:32.056Z,51.79
2023-07-03T06:05:33.779Z,51.83
2023-07-03T06:10:35.462Z,51.01
2023-07-03T06:15:37.164Z,51.20
2023-07-03T06:20:39.119Z,51.07
2023-07-03T06:25:41.465Z,51.22
2023-07-03T06:30:51.343Z,51.17
2023-07-03T06:35:53.391Z,50.69
2023-07-03T06:41:01.560Z,50.74
2023-07-03T06:46:03.187Z,50.60
2023-07-03T06:51:06.614Z,49.43
2023-07-03T06:56:09.139Z,47.62
2023-07-03T07:01:13.493Z,48.50
2023-07-03T07:06:22.541Z,46.82
2023-07-03T07:11:29.531Z,47.64
2023-07-03T07:16:35.960Z,47.29
2023-07-03T07:21:39.566Z,46.96
2023-07-03T07:26:41.338Z,46.57
2023-07-03T07:31:43.220Z,46.97
2023-07-03T07:36:45.802Z,47.65
2023-07-03T07:41:47.927Z,46.37
2023-07-03T07:46:49.591Z,45.78
2023-07-03T07:51:51.399Z,45.90
2023-07-03T07:56:52.997Z,45.39
2023-07-03T08:01:54.626Z,45.99
2023-07-03T08:06:56.281Z,45.91
2023-07-03T08:11:57.996Z,44.25
2023-07-03T08:16:59.754Z,44.31
2023-07-03T08:22:01.437Z,44.20
2023-07-03T08:27:03.126Z,43.97
2023-07-03T08:32:10.365Z,44.17
2023-07-03T08:37:12.091Z,43.66
2023-07-03T08:42:24.979Z,43.78
2023-07-03T08:47:29.299Z,43.88
2023-07-03T08:52:46.334Z,44.38
2023-07-03T08:57:47.994Z,44.16
2023-07-03T09:03:09.105Z,42.51
2023-07-03T09:08:21.466Z,42.53
2023-07-03T09:13:33.946Z,42.48
2023-07-03T09:18:38.886Z,42.25
2023-07-03T09:23:54.968Z,42.69
2023-07-03T09:28:59.445Z,43.03
2023-07-03T09:34:01.085Z,42.26
2023-07-03T09:39:08.389Z,42.29
2023-07-03T09:44:14.145Z,42.00
2023-07-03T09:49:24.077Z,41.89
2023-07-03T09:54:31.097Z,42.59
2023-07-03T09:59:33.012Z,42.18
2023-07-03T10:15:00.828Z,43.40
2023-07-03T10:20:05.950Z,43.97
2023-07-03T10:25:10.882Z,44.62
2023-07-03T10:30:16.548Z,44.65
2023-07-03T10:35:25.853Z,45.43
2023-07-03T10:41:00.721Z,45.23
2023-07-03T10:46:03.847Z,45.31
2023-07-03T10:51:14.938Z,44.26
2023-07-03T10:56:44.485Z,44.33
2023-07-03T11:02:13.634Z,43.76
2023-07-03T11:07:20.637Z,44.21
2023-07-03T11:12:40.454Z,44.86
2023-07-03T11:23:29.374Z,43.93
2023-07-03T11:28:37.072Z,43.67
2023-07-03T11:44:35.196Z,42.66
2023-07-03T11:49:40.531Z,43.20
2023-07-03T11:54:43.240Z,42.71
2023-07-03T11:59:44.922Z,44.69
2023-07-03T12:04:49.553Z,45.18
2023-07-03T12:09:51.931Z,44.81
2023-07-03T12:14:58.779Z,44.75
2023-07-03T12:20:28.919Z,44.37
2023-07-03T12:25:30.839Z,43.70
2023-07-03T12:30:32.517Z,42.47
2023-07-03T12:35:36.478Z,42.22
2023-07-03T12:40:45.972Z,43.23
2023-07-03T12:45:52.688Z,42.51
2023-07-03T12:50:57.595Z,42.41
2023-07-03T12:56:04.010Z,42.56
2023-07-03T13:01:07.481Z,42.04
2023-07-03T13:06:29.072Z,41.17
2023-07-03T13:11:45.082Z,40.51
2023-07-03T13:16:49.686Z,41.55
2023-07-03T13:21:52.062Z,41.90
2023-07-03T13:26:54.651Z,40.80
2023-07-03T13:32:20.102Z,41.00
2023-07-03T13:37:26.728Z,41.65
2023-07-03T13:42:28.348Z,42.77
2023-07-03T13:47:30.294Z,42.83
2023-07-03T13:52:32.031Z,43.05
2023-07-03T13:57:33.670Z,42.05
2023-07-03T14:02:47.122Z,41.65
2023-07-03T14:07:50.035Z,41.70
2023-07-03T14:12:51.835Z,43.16
2023-07-03T14:17:54.405Z,43.79
2023-07-03T14:22:56.668Z,43.70
2023-07-03T14:28:00.111Z,43.97
2023-07-03T14:33:01.796Z,44.52
2023-07-03T14:38:03.461Z,43.93
2023-07-03T14:43:06.581Z,44.19
2023-07-03T14:48:10.064Z,44.08
2023-07-03T14:53:11.703Z,43.50
2023-07-03T14:58:13.924Z,43.47
2023-07-03T15:03:15.784Z,43.67
2023-07-03T15:08:17.586Z,44.53
2023-07-03T15:13:19.609Z,43.90
2023-07-03T15:18:22.922Z,43.95
2023-07-03T15:23:24.531Z,43.80
2023-07-03T15:28:26.155Z,43.24
2023-07-03T15:33:28.433Z,43.14
2023-07-03T15:38:31.172Z,42.28
2023-07-03T15:43:33.887Z,43.00
2023-07-03T15:48:37.033Z,42.59
2023-07-03T15:53:39.187Z,42.80
2023-07-03T15:58:43.235Z,42.82
2023-07-03T16:03:45.681Z,43.59
2023-07-03T16:08:47.397Z,42.43
2023-07-03T16:13:49.754Z,42.24
2023-07-03T16:18:54.233Z,42.40
2023-07-03T16:23:57.343Z,41.93
2023-07-03T16:28:59.021Z,41.89
2023-07-03T16:34:01.937Z,41.78
2023-07-03T16:39:05.516Z,42.60
2023-07-03T16:44:07.256Z,42.19
2023-07-03T16:49:09.104Z,41.73
2023-07-03T16:54:10.765Z,41.83
2023-07-03T16:59:12.376Z,41.38
2023-07-03T17:04:13.975Z,41.19
2023-07-03T17:09:19.412Z,41.00
2023-07-03T17:14:21.081Z,40.13
2023-07-03T17:19:22.726Z,39.35
2023-07-03T17:24:24.387Z,40.15
2023-07-03T17:29:27.800Z,41.27
2023-07-03T17:34:29.444Z,41.17
2023-07-03T17:39:31.164Z,41.64
2023-07-03T17:44:32.795Z,40.90
2023-07-03T17:49:34.611Z,40.50
2023-07-03T17:54:37.267Z,41.83
2023-07-03T17:59:38.847Z,42.67
2023-07-03T18:04:40.476Z,41.72
2023-07-03T18:09:43.556Z,42.36
2023-07-03T18:14:45.418Z,43.04
2023-07-03T18:19:47.021Z,42.83
2023-07-03T18:24:48.638Z,42.91
2023-07-03T18:29:50.364Z,43.25
2023-07-03T18:34:52.118Z,43.63
2023-07-03T18:39:56.520Z,43.03
2023-07-03T18:44:58.305Z,44.10
2023-07-03T18:49:59.999Z,43.80
2023-07-03T18:55:01.898Z,44.05
2023-07-03T19:00:05.378Z,44.39
2023-07-03T19:05:07.557Z,44.61
2023-07-03T19:10:17.834Z,45.26
2023-07-03T19:15:20.534Z,45.17
2023-07-03T19:20:22.528Z,45.45
2023-07-03T19:25:24.896Z,45.38
2023-07-03T19:30:26.948Z,45.94
2023-07-03T19:35:28.561Z,46.22
2023-07-03T19:40:30.263Z,46.81
2023-07-03T19:45:33.627Z,47.20
2023-07-03T19:50:37.994Z,47.34
2023-07-03T19:55:39.774Z,47.41
2023-07-03T20:00:41.439Z,48.64
2023-07-03T20:05:46.481Z,49.24
2023-07-03T20:10:58.597Z,48.94
2023-07-03T20:16:04.163Z,49.29
2023-07-03T20:21:07.165Z,49.78
2023-07-03T20:26:08.789Z,50.43
2023-07-03T20:31:15.418Z,50.57
2023-07-03T20:36:17.809Z,51.54
2023-07-03T20:41:20.273Z,51.60
2023-07-03T20:46:25.347Z,52.43
2023-07-03T20:51:32.792Z,53.36
2023-07-03T20:56:39.670Z,52.37
2023-07-03T21:01:41.345Z,52.65
2023-07-03T21:06:45.443Z,54.19
2023-07-03T21:11:47.651Z,53.48
2023-07-03T21:16:49.469Z,54.64
2023-07-03T21:21:51.174Z,54.74
2023-07-03T21:26:52.873Z,56.04
2023-07-03T21:31:54.558Z,57.55
2023-07-03T21:36:56.297Z,56.42
2023-07-03T21:41:58.111Z,56.64
2023-07-03T21:47:01.595Z,56.81
2023-07-03T21:52:03.366Z,58.02
2023-07-03T21:57:05.471Z,57.87
2023-07-03T22:02:07.194Z,58.54
2023-07-03T22:07:08.901Z,58.60
2023-07-03T22:12:10.700Z,58.65
2023-07-03T22:17:12.283Z,58.97
2023-07-03T22:22:14.411Z,58.82
2023-07-03T22:27:16.292Z,58.65
2023-07-03T22:32:17.903Z,59.49
2023-07-03T22:37:20.229Z,59.39
2023-07-03T22:42:21.945Z,59.72
2023-07-03T22:47:23.712Z,59.67
2023-07-03T22:52:25.484Z,60.10
2023-07-03T22:57:27.940Z,59.76
2023-07-03T23:02:32.010Z,59.77
2023-07-03T23:07:34.360Z,53.97
2023-07-03T23:12:36.367Z,59.71
2023-07-03T23:17:38.037Z,59.48
2023-07-03T23:22:40.127Z,59.50
2023-07-03T23:27:43.090Z,59.36
2023-07-03T23:32:44.779Z,59.85
2023-07-03T23:37:46.516Z,60.44
2023-07-03T23:42:48.208Z,59.88
2023-07-03T23:47:52.832Z,60.03
2023-07-03T23:52:55.136Z,60.96
2023-07-03T23:57:56.750Z,60.37
